createdAt,value
2023-05-01T00:00:39.104Z,99.99
2023-05-01T00:01:39.406Z,99.99
2023-05-01T00:02:39.859Z,99.99
2023-05-01T00:03:40.283Z,99.99
2023-05-01T00:04:40.542Z,99.99
2023-05-01T00:05:40.849Z,99.99
2023-05-01T00:06:41.285Z,99.99
2023-05-01T00:07:41.562Z,99.99
2023-05-01T00:08:41.845Z,99.99
2023-05-01T00:09:42.230Z,99.99
2023-05-01T00:10:42.574Z,99.99
2023-05-01T00:11:42.913Z,99.99
2023-05-01T00:12:43.266Z,99.99
2023-05-01T00:13:43.613Z,99.99
2023-05-01T00:14:43.954Z,99.99
2023-05-01T00:15:44.374Z,99.99
2023-05-01T00:16:44.690Z,99.99
2023-05-01T00:17:45.066Z,99.99
2023-05-01T00:18:45.380Z,99.99
2023-05-01T00:19:45.731Z,99.99
2023-05-01T00:20:46.136Z,99.99
2023-05-01T00:21:46.433Z,99.99
2023-05-01T00:22:46.757Z,99.99
2023-05-01T00:23:47.103Z,99.99
2023-05-01T00:24:47.434Z,99.99
2023-05-01T00:25:47.808Z,99.99
2023-05-01T00:26:48.164Z,99.99
2023-05-01T00:27:48.510Z,99.99
2023-05-01T00:28:48.893Z,99.99
2023-05-01T00:29:49.193Z,99.99
2023-05-01T00:30:49.570Z,99.99
2023-05-01T00:31:50.028Z,99.99
2023-05-01T00:32:50.305Z,99.99
2023-05-01T00:33:50.611Z,99.99
2023-05-01T00:34:50.976Z,99.99
2023-05-01T00:35:51.332Z,99.99
2023-05-01T00:36:51.672Z,99.99
2023-05-01T00:37:52.027Z,99.99
2023-05-01T00:38:52.389Z,99.99
2023-05-01T00:39:52.728Z,99.99
2023-05-01T00:40:53.071Z,99.99
2023-05-01T00:41:53.433Z,99.99
2023-05-01T00:42:53.768Z,99.99
2023-05-01T00:43:54.102Z,99.99
2023-05-01T00:44:54.458Z,99.99
2023-05-01T00:45:54.873Z,99.99
2023-05-01T00:46:55.165Z,99.99
2023-05-01T00:47:55.622Z,99.99
2023-05-01T00:48:55.843Z,99.99
2023-05-01T00:49:56.613Z,99.99
2023-05-01T00:50:56.611Z,99.99
2023-05-01T00:51:56.925Z,99.99
2023-05-01T00:52:57.295Z,99.99
2023-05-01T00:53:57.666Z,99.99
2023-05-01T00:54:57.969Z,99.99
2023-05-01T00:55:58.375Z,99.99
2023-05-01T00:56:58.679Z,99.99
2023-05-01T00:57:59.022Z,99.99
2023-05-01T00:58:59.393Z,99.99
2023-05-01T00:59:59.728Z,99.99
2023-05-01T01:01:00.201Z,99.99
2023-05-01T01:02:00.406Z,99.99
2023-05-01T01:03:00.801Z,99.99
2023-05-01T01:04:01.177Z,99.99
2023-05-01T01:05:01.480Z,99.99
2023-05-01T01:06:01.912Z,99.99
2023-05-01T01:07:02.175Z,99.99
2023-05-01T01:08:02.528Z,99.99
2023-05-01T01:09:02.855Z,99.99
2023-05-01T01:10:03.220Z,99.99
2023-05-01T01:11:03.601Z,99.99
2023-05-01T01:12:04.030Z,99.99
2023-05-01T01:13:04.280Z,99.99
2023-05-01T01:14:04.624Z,99.99
2023-05-01T01:15:04.970Z,99.99
2023-05-01T01:16:05.336Z,99.99
2023-05-01T01:17:05.814Z,99.99
2023-05-01T01:18:06.150Z,99.99
2023-05-01T01:19:06.373Z,99.99
2023-05-01T01:20:06.734Z,99.99
2023-05-01T01:21:07.118Z,99.99
2023-05-01T01:22:07.411Z,99.99
2023-05-01T01:23:07.756Z,99.99
2023-05-01T01:24:08.099Z,99.99
2023-05-01T01:25:08.446Z,99.99
2023-05-01T01:26:08.791Z,99.99
2023-05-01T01:27:09.133Z,99.99
2023-05-01T01:28:09.467Z,99.99
2023-05-01T01:29:09.830Z,99.99
2023-05-01T01:30:10.181Z,99.99
2023-05-01T01:31:10.600Z,99.99
2023-05-01T01:32:10.853Z,99.99
2023-05-01T01:33:11.180Z,99.99
2023-05-01T01:34:11.537Z,99.99
2023-05-01T01:35:11.893Z,99.99
2023-05-01T01:36:12.306Z,99.99
2023-05-01T01:37:12.572Z,99.99
2023-05-01T01:38:12.926Z,99.99
2023-05-01T01:39:13.282Z,99.99
2023-05-01T01:40:13.617Z,99.99
2023-05-01T01:41:13.997Z,99.99
2023-05-01T01:42:14.343Z,99.99
2023-05-01T01:43:14.690Z,99.99
2023-05-01T01:44:15.070Z,99.99
2023-05-01T01:45:15.393Z,99.99
2023-05-01T01:46:15.815Z,99.99
2023-05-01T01:47:16.076Z,99.99
2023-05-01T01:48:16.478Z,99.99
2023-05-01T01:49:18.534Z,99.99
2023-05-01T01:50:17.146Z,99.99
2023-05-01T01:51:17.464Z,99.99
2023-05-01T01:52:17.803Z,99.99
2023-05-01T01:53:18.236Z,99.99
2023-05-01T01:54:18.520Z,99.99
2023-05-01T01:55:18.872Z,99.99
2023-05-01T01:56:19.239Z,99.99
2023-05-01T01:57:19.579Z,99.99
2023-05-01T01:58:19.944Z,99.99
2023-05-01T01:59:20.284Z,99.99
2023-05-01T02:00:20.683Z,99.99
2023-05-01T02:01:21.012Z,99.99
2023-05-01T02:02:21.307Z,99.99
2023-05-01T02:03:21.752Z,99.99
2023-05-01T02:04:21.981Z,99.99
2023-05-01T02:05:22.316Z,99.99
2023-05-01T02:06:22.743Z,99.99
2023-05-01T02:07:23.011Z,99.99
2023-05-01T02:08:23.360Z,99.99
2023-05-01T02:09:23.716Z,99.99
2023-05-01T02:10:24.055Z,99.99
2023-05-01T02:11:24.423Z,99.99
2023-05-01T02:12:24.817Z,99.99
2023-05-01T02:13:25.107Z,99.99
2023-05-01T02:14:25.474Z,99.99
2023-05-01T02:15:25.792Z,99.99
2023-05-01T02:16:26.174Z,99.99
2023-05-01T02:17:26.587Z,99.99
2023-05-01T02:18:26.874Z,99.99
2023-05-01T02:19:27.244Z,99.99
2023-05-01T02:20:27.581Z,99.99
2023-05-01T02:21:27.975Z,99.99
2023-05-01T02:22:28.320Z,99.99
2023-05-01T02:23:28.661Z,99.99
2023-05-01T02:24:28.977Z,99.99
2023-05-01T02:25:29.710Z,99.99
2023-05-01T02:26:29.729Z,99.99
2023-05-01T02:27:30.041Z,99.99
2023-05-01T02:28:30.395Z,99.99
2023-05-01T02:29:30.756Z,99.99
2023-05-01T02:30:31.085Z,99.99
2023-05-01T02:31:31.539Z,99.99
2023-05-01T02:32:31.833Z,99.99
2023-05-01T02:33:32.218Z,99.99
2023-05-01T02:34:32.487Z,99.99
2023-05-01T02:35:32.828Z,99.99
2023-05-01T02:36:33.197Z,99.99
2023-05-01T02:37:33.523Z,99.99
2023-05-01T02:38:33.904Z,99.99
2023-05-01T02:39:34.218Z,99.99
2023-05-01T02:40:34.566Z,99.99
2023-05-01T02:41:34.971Z,99.99
2023-05-01T02:42:35.255Z,99.99
2023-05-01T02:43:35.586Z,99.99
2023-05-01T02:44:35.950Z,99.99
2023-05-01T02:45:36.313Z,99.99
2023-05-01T02:46:36.684Z,99.99
2023-05-01T02:47:37.023Z,99.99
2023-05-01T02:48:37.332Z,99.99
2023-05-01T02:49:37.668Z,99.99
2023-05-01T02:50:38.007Z,99.99
2023-05-01T02:51:38.370Z,99.99
2023-05-01T02:52:38.721Z,99.99
2023-05-01T02:53:39.065Z,99.99
2023-05-01T02:54:39.410Z,99.99
2023-05-01T02:55:39.763Z,99.99
2023-05-01T02:56:40.126Z,99.99
2023-05-01T02:57:40.479Z,99.99
2023-05-01T02:58:40.821Z,99.99
2023-05-01T02:59:41.211Z,99.99
2023-05-01T03:00:41.551Z,99.99
2023-05-01T03:01:42.028Z,99.99
2023-05-01T03:02:42.342Z,99.99
2023-05-01T03:03:42.743Z,99.99
2023-05-01T03:04:43.084Z,99.99
2023-05-01T03:05:43.322Z,99.99
2023-05-01T03:06:43.579Z,99.99
2023-05-01T03:07:43.801Z,99.99
2023-05-01T03:08:44.083Z,99.99
2023-05-01T03:09:44.385Z,99.99
2023-05-01T03:10:44.662Z,99.99
2023-05-01T03:11:44.975Z,99.99
2023-05-01T03:12:45.110Z,99.99
2023-05-01T03:13:45.414Z,99.99
2023-05-01T03:14:45.689Z,99.99
2023-05-01T03:15:45.998Z,99.99
2023-05-01T03:16:46.351Z,99.99
2023-05-01T03:17:46.574Z,99.99
2023-05-01T03:18:46.817Z,99.99
2023-05-01T03:19:47.096Z,99.99
2023-05-01T03:20:47.372Z,99.99
2023-05-01T03:21:47.703Z,99.99
2023-05-01T03:22:47.965Z,99.99
2023-05-01T03:23:48.265Z,99.99
2023-05-01T03:24:48.454Z,99.99
2023-05-01T03:25:48.719Z,99.99
2023-05-01T03:26:49.013Z,99.99
2023-05-01T03:27:49.277Z,99.99
2023-05-01T03:28:49.435Z,99.99
2023-05-01T03:29:49.756Z,99.99
2023-05-01T03:30:50.124Z,99.99
2023-05-01T03:31:50.431Z,99.99
2023-05-01T03:32:50.662Z,99.99
2023-05-01T03:33:50.904Z,99.99
2023-05-01T03:34:51.117Z,99.99
2023-05-01T03:35:51.244Z,99.99
2023-05-01T03:36:51.543Z,99.99
2023-05-01T03:37:51.808Z,99.99
2023-05-01T03:38:52.124Z,99.99
2023-05-01T03:39:52.296Z,99.99
2023-05-01T03:40:52.452Z,99.99
2023-05-01T03:41:52.682Z,99.99
2023-05-01T03:42:52.895Z,99.99
2023-05-01T03:43:53.202Z,99.99
2023-05-01T03:44:53.367Z,99.99
2023-05-01T03:45:53.690Z,99.99
2023-05-01T03:46:54.004Z,99.99
2023-05-01T03:47:54.228Z,99.99
2023-05-01T03:48:54.296Z,99.99
2023-05-01T03:49:54.656Z,99.99
2023-05-01T03:50:54.640Z,99.99
2023-05-01T03:51:54.985Z,99.99
2023-05-01T03:52:55.126Z,99.99
2023-05-01T03:53:55.299Z,99.99
2023-05-01T03:54:55.465Z,99.99
2023-05-01T03:55:55.656Z,99.99
2023-05-01T03:56:55.841Z,99.99
2023-05-01T03:57:55.991Z,99.99
2023-05-01T03:58:56.274Z,99.99
2023-05-01T03:59:56.720Z,99.99
2023-05-01T04:00:56.610Z,99.99
2023-05-01T04:01:56.841Z,99.99
2023-05-01T04:02:57.202Z,99.99
2023-05-01T04:03:57.173Z,99.99
2023-05-01T04:04:57.295Z,99.99
2023-05-01T04:05:57.686Z,99.99
2023-05-01T04:06:57.791Z,99.99
2023-05-01T04:07:58.053Z,99.99
2023-05-01T04:08:58.271Z,99.99
2023-05-01T04:09:58.518Z,99.99
2023-05-01T04:10:58.721Z,99.99
2023-05-01T04:11:58.945Z,99.99
2023-05-01T04:12:59.046Z,99.99
2023-05-01T04:13:59.245Z,99.99
2023-05-01T04:14:59.398Z,99.99
2023-05-01T04:15:59.608Z,99.99
2023-05-01T04:16:59.733Z,99.99
2023-05-01T04:18:00.036Z,99.99
2023-05-01T04:19:00.340Z,99.99
2023-05-01T04:20:00.486Z,99.99
2023-05-01T04:21:00.782Z,99.99
2023-05-01T04:22:00.984Z,99.99
2023-05-01T04:23:01.153Z,99.99
2023-05-01T04:24:01.298Z,99.96
2023-05-01T04:25:01.594Z,99.86
2023-05-01T04:26:01.771Z,99.55
2023-05-01T04:27:02.024Z,99.40
2023-05-01T04:28:02.183Z,99.51
2023-05-01T04:29:02.314Z,99.30
2023-05-01T04:30:02.502Z,99.30
2023-05-01T04:31:02.696Z,99.19
2023-05-01T04:32:02.992Z,99.19
2023-05-01T04:33:03.235Z,99.19
2023-05-01T04:34:03.475Z,98.78
2023-05-01T04:35:04.233Z,98.42
2023-05-01T04:36:03.923Z,98.11
2023-05-01T04:37:04.334Z,97.90
2023-05-01T04:38:04.408Z,97.55
2023-05-01T04:39:04.702Z,97.44
2023-05-01T04:40:05.008Z,97.24
2023-05-01T04:41:05.314Z,97.03
2023-05-01T04:42:05.501Z,96.57
2023-05-01T04:43:05.685Z,96.47
2023-05-01T04:44:06.030Z,95.22
2023-05-01T04:45:06.177Z,95.18
2023-05-01T04:46:06.420Z,94.87
2023-05-01T04:47:06.807Z,94.76
2023-05-01T04:48:07.041Z,94.45
2023-05-01T04:49:07.142Z,93.99
2023-05-01T04:50:07.317Z,93.79
2023-05-01T04:51:07.528Z,93.58
2023-05-01T04:52:07.701Z,93.48
2023-05-01T04:53:07.885Z,93.54
2023-05-01T04:54:08.153Z,93.23
2023-05-01T04:55:08.457Z,92.50
2023-05-01T04:56:08.765Z,92.36
2023-05-01T04:57:08.981Z,91.94
2023-05-01T04:58:09.132Z,91.59
2023-05-01T04:59:09.429Z,91.28
2023-05-01T05:00:09.799Z,90.87
2023-05-01T05:01:10.030Z,90.00
2023-05-01T05:02:10.252Z,89.95
2023-05-01T05:03:10.567Z,89.13
2023-05-01T05:04:10.697Z,89.34
2023-05-01T05:05:10.900Z,88.68
2023-05-01T05:06:11.250Z,88.47
2023-05-01T05:07:11.492Z,88.16
2023-05-01T05:08:11.663Z,87.60
2023-05-01T05:09:11.839Z,87.13
2023-05-01T05:10:12.155Z,87.65
2023-05-01T05:11:12.345Z,87.81
2023-05-01T05:12:12.658Z,87.81
2023-05-01T05:13:12.936Z,87.19
2023-05-01T05:14:13.267Z,87.29
2023-05-01T05:15:13.508Z,86.78
2023-05-01T05:16:13.770Z,86.47
2023-05-01T05:17:14.021Z,86.36
2023-05-01T05:18:14.246Z,86.68
2023-05-01T05:19:14.500Z,86.57
2023-05-01T05:20:14.676Z,86.16
2023-05-01T05:21:14.886Z,85.78
2023-05-01T05:22:15.074Z,86.26
2023-05-01T05:23:15.304Z,85.75
2023-05-01T05:24:15.408Z,85.75
2023-05-01T05:25:15.582Z,85.95
2023-05-01T05:26:15.754Z,85.95
2023-05-01T05:27:15.985Z,85.71
2023-05-01T05:28:16.253Z,85.50
2023-05-01T05:29:16.404Z,85.09
2023-05-01T05:30:16.735Z,84.84
2023-05-01T05:31:17.032Z,84.33
2023-05-01T05:32:17.312Z,84.43
2023-05-01T05:33:17.576Z,84.19
2023-05-01T05:34:17.694Z,83.98
2023-05-01T05:35:17.860Z,83.94
2023-05-01T05:36:18.180Z,83.84
2023-05-01T05:37:18.366Z,82.67
2023-05-01T05:38:18.592Z,81.63
2023-05-01T05:39:18.838Z,81.60
2023-05-01T05:40:19.027Z,80.88
2023-05-01T05:41:19.324Z,80.26
2023-05-01T05:42:19.515Z,80.67
2023-05-01T05:43:19.706Z,81.15
2023-05-01T05:44:19.869Z,79.98
2023-05-01T05:45:20.171Z,79.77
2023-05-01T05:46:20.596Z,78.96
2023-05-01T05:47:20.689Z,78.54
2023-05-01T05:48:21.036Z,79.02
2023-05-01T05:49:21.139Z,78.23
2023-05-01T05:50:21.474Z,77.99
2023-05-01T05:51:21.613Z,77.58
2023-05-01T05:52:21.937Z,77.62
2023-05-01T05:53:24.320Z,78.61
2023-05-01T05:54:22.296Z,77.23
2023-05-01T05:55:22.616Z,77.03
2023-05-01T05:56:22.788Z,77.40
2023-05-01T05:57:22.978Z,76.04
2023-05-01T05:58:23.394Z,75.01
2023-05-01T05:59:23.327Z,74.70
2023-05-01T06:00:23.525Z,74.70
2023-05-01T06:01:23.735Z,74.32
2023-05-01T06:02:24.129Z,74.53
2023-05-01T06:03:24.439Z,74.02
2023-05-01T06:04:24.380Z,74.49
2023-05-01T06:05:24.627Z,74.49
2023-05-01T06:06:24.890Z,73.64
2023-05-01T06:07:25.052Z,73.95
2023-05-01T06:08:25.217Z,73.54
2023-05-01T06:09:25.513Z,73.88
2023-05-01T06:10:25.684Z,74.77
2023-05-01T06:11:25.987Z,73.64
2023-05-01T06:12:26.180Z,73.95
2023-05-01T06:13:26.458Z,74.49
2023-05-01T06:14:26.784Z,75.18
2023-05-01T06:15:27.078Z,73.98
2023-05-01T06:16:27.368Z,75.28
2023-05-01T06:17:27.565Z,74.66
2023-05-01T06:18:27.845Z,75.38
2023-05-01T06:19:28.139Z,74.57
2023-05-01T06:20:28.351Z,75.18
2023-05-01T06:21:28.518Z,75.76
2023-05-01T06:22:28.857Z,75.24
2023-05-01T06:23:29.006Z,75.15
2023-05-01T06:24:29.201Z,75.15
2023-05-01T06:25:29.476Z,74.53
2023-05-01T06:26:29.777Z,74.22
2023-05-01T06:27:29.985Z,76.03
2023-05-01T06:28:30.128Z,74.32
2023-05-01T06:29:30.314Z,74.70
2023-05-01T06:30:30.505Z,75.52
2023-05-01T06:31:30.709Z,73.36
2023-05-01T06:32:30.941Z,72.86
2023-05-01T06:33:31.072Z,72.86
2023-05-01T06:34:31.285Z,73.85
2023-05-01T06:35:31.446Z,73.81
2023-05-01T06:36:31.639Z,73.61
2023-05-01T06:37:31.856Z,72.96
2023-05-01T06:38:32.005Z,72.34
2023-05-01T06:39:32.194Z,71.49
2023-05-01T06:40:32.379Z,69.14
2023-05-01T06:41:32.569Z,68.63
2023-05-01T06:42:32.785Z,67.10
2023-05-01T06:43:32.933Z,65.87
2023-05-01T06:44:33.130Z,65.77
2023-05-01T06:45:33.326Z,65.73
2023-05-01T06:46:33.562Z,65.73
2023-05-01T06:47:33.704Z,65.53
2023-05-01T06:48:33.840Z,64.89
2023-05-01T06:49:34.004Z,64.48
2023-05-01T06:50:34.213Z,64.78
2023-05-01T06:51:34.396Z,64.99
2023-05-01T06:52:34.610Z,65.40
2023-05-01T06:53:34.847Z,64.14
2023-05-01T06:54:34.943Z,64.24
2023-05-01T06:55:35.933Z,63.93
2023-05-01T06:56:35.315Z,63.53
2023-05-01T06:57:35.526Z,63.93
2023-05-01T06:58:35.679Z,63.93
2023-05-01T06:59:35.868Z,63.90
2023-05-01T07:00:36.097Z,62.99
2023-05-01T07:01:36.288Z,63.70
2023-05-01T07:02:36.547Z,64.11
2023-05-01T07:03:36.671Z,62.85
2023-05-01T07:04:36.791Z,63.16
2023-05-01T07:05:36.967Z,62.76
2023-05-01T07:06:37.267Z,63.37
2023-05-01T07:07:38.918Z,62.65
2023-05-01T07:08:37.551Z,62.04
2023-05-01T07:09:37.726Z,62.73
2023-05-01T07:10:39.272Z,61.30
2023-05-01T07:11:38.115Z,61.19
2023-05-01T07:12:38.404Z,62.11
2023-05-01T07:13:38.540Z,62.70
2023-05-01T07:14:38.670Z,61.37
2023-05-01T07:15:38.934Z,61.98
2023-05-01T07:16:39.068Z,61.16
2023-05-01T07:17:39.333Z,61.16
2023-05-01T07:18:39.439Z,60.96
2023-05-01T07:19:39.614Z,60.86
2023-05-01T07:20:39.874Z,60.35
2023-05-01T07:21:40.014Z,59.66
2023-05-01T07:22:40.242Z,60.48
2023-05-01T07:23:40.368Z,61.47
2023-05-01T07:24:40.554Z,61.44
2023-05-01T07:25:40.769Z,60.93
2023-05-01T07:26:40.952Z,59.91
2023-05-01T07:27:41.182Z,60.02
2023-05-01T07:28:41.307Z,60.42
2023-05-01T07:29:41.528Z,60.12
2023-05-01T07:30:41.669Z,59.71
2023-05-01T07:31:41.906Z,59.30
2023-05-01T07:32:42.129Z,59.91
2023-05-01T07:33:42.242Z,59.61
2023-05-01T07:34:42.433Z,59.58
2023-05-01T07:35:42.630Z,59.58
2023-05-01T07:36:42.790Z,59.89
2023-05-01T07:37:43.011Z,58.87
2023-05-01T07:38:43.172Z,58.33
2023-05-01T07:39:43.371Z,57.85
2023-05-01T07:40:43.544Z,58.36
2023-05-01T07:41:43.748Z,58.23
2023-05-01T07:42:43.969Z,58.53
2023-05-01T07:43:44.095Z,58.74
2023-05-01T07:44:44.292Z,58.33
2023-05-01T07:45:44.507Z,58.53
2023-05-01T07:46:44.655Z,58.13
2023-05-01T07:47:44.893Z,58.33
2023-05-01T07:48:45.050Z,58.64
2023-05-01T07:49:45.231Z,58.94
2023-05-01T07:50:45.425Z,59.25
2023-05-01T07:51:45.672Z,58.71
2023-05-01T07:52:45.855Z,58.81
2023-05-01T07:53:45.970Z,57.79
2023-05-01T07:54:46.163Z,58.20
2023-05-01T07:55:46.362Z,58.99
2023-05-01T07:56:48.587Z,59.30
2023-05-01T07:57:46.757Z,59.50
2023-05-01T07:58:46.934Z,57.16
2023-05-01T07:59:47.125Z,57.36
2023-05-01T08:00:47.317Z,57.54
2023-05-01T08:01:47.504Z,58.15
2023-05-01T08:02:47.756Z,57.95
2023-05-01T08:03:50.259Z,57.84
2023-05-01T08:04:48.105Z,56.93
2023-05-01T08:05:48.259Z,57.74
2023-05-01T08:06:48.486Z,57.74
2023-05-01T08:07:48.713Z,57.54
2023-05-01T08:08:48.839Z,57.03
2023-05-01T08:09:49.035Z,57.84
2023-05-01T08:10:49.218Z,58.12
2023-05-01T08:11:49.403Z,57.59
2023-05-01T08:12:49.608Z,57.48
2023-05-01T08:13:49.768Z,56.37
2023-05-01T08:14:49.964Z,57.08
2023-05-01T08:15:50.187Z,56.26
2023-05-01T08:16:50.322Z,56.67
2023-05-01T08:17:50.676Z,55.55
2023-05-01T08:18:50.685Z,56.06
2023-05-01T08:19:50.860Z,56.44
2023-05-01T08:20:51.062Z,55.73
2023-05-01T08:21:51.271Z,55.63
2023-05-01T08:22:51.465Z,55.73
2023-05-01T08:23:51.576Z,55.63
2023-05-01T08:24:51.772Z,56.24
2023-05-01T08:25:51.966Z,55.63
2023-05-01T08:26:52.139Z,56.85
2023-05-01T08:27:52.356Z,55.20
2023-05-01T08:28:52.506Z,54.41
2023-05-01T08:29:52.693Z,55.40
2023-05-01T08:30:52.903Z,53.50
2023-05-01T08:31:53.137Z,54.31
2023-05-01T08:32:53.391Z,54.82
2023-05-01T08:33:53.459Z,55.32
2023-05-01T08:34:53.693Z,55.20
2023-05-01T08:35:53.872Z,55.60
2023-05-01T08:36:54.135Z,55.58
2023-05-01T08:37:54.240Z,54.97
2023-05-01T08:38:54.404Z,54.16
2023-05-01T08:39:54.717Z,54.05
2023-05-01T08:40:54.792Z,54.84
2023-05-01T08:41:54.929Z,54.36
2023-05-01T08:42:55.143Z,54.84
2023-05-01T08:43:55.281Z,54.44
2023-05-01T08:44:55.466Z,54.03
2023-05-01T08:45:55.648Z,54.53
2023-05-01T08:46:55.962Z,55.65
2023-05-01T08:47:56.048Z,54.41
2023-05-01T08:48:56.189Z,53.83
2023-05-01T08:49:56.636Z,53.42
2023-05-01T08:50:56.567Z,53.40
2023-05-01T08:51:56.730Z,53.19
2023-05-01T08:52:56.905Z,52.89
2023-05-01T08:53:57.073Z,52.69
2023-05-01T08:54:57.278Z,52.79
2023-05-01T08:55:57.460Z,51.70
2023-05-01T08:56:57.637Z,52.28
2023-05-01T08:57:57.822Z,52.06
2023-05-01T08:58:57.981Z,51.45
2023-05-01T08:59:58.436Z,50.84
2023-05-01T09:00:58.371Z,51.42
2023-05-01T09:01:58.584Z,51.12
2023-05-01T09:02:58.835Z,52.01
2023-05-01T09:03:59.059Z,50.97
2023-05-01T09:04:59.135Z,50.54
2023-05-01T09:05:59.488Z,50.52
2023-05-01T09:06:59.521Z,49.73
2023-05-01T09:07:59.709Z,49.81
2023-05-01T09:08:59.882Z,49.41
2023-05-01T09:10:00.126Z,49.02
2023-05-01T09:11:00.250Z,51.03
2023-05-01T09:12:00.450Z,51.23
2023-05-01T09:13:00.655Z,47.39
2023-05-01T09:14:00.841Z,46.96
2023-05-01T09:15:00.962Z,45.25
2023-05-01T09:16:01.287Z,45.37
2023-05-01T09:17:01.345Z,46.01
2023-05-01T09:18:03.603Z,46.80
2023-05-01T09:19:01.765Z,47.11
2023-05-01T09:20:01.969Z,47.49
2023-05-01T09:21:02.109Z,47.67
2023-05-01T09:22:02.834Z,46.91
2023-05-01T09:23:02.530Z,47.94
2023-05-01T09:24:02.688Z,48.87
2023-05-01T09:25:02.865Z,50.12
2023-05-01T09:26:03.068Z,47.39
2023-05-01T09:27:03.236Z,48.80
2023-05-01T09:28:03.460Z,48.30
2023-05-01T09:29:03.641Z,47.39
2023-05-01T09:30:03.918Z,47.59
2023-05-01T09:31:03.998Z,47.79
2023-05-01T09:32:04.198Z,47.36
2023-05-01T09:33:04.926Z,44.43
2023-05-01T09:34:04.526Z,45.37
2023-05-01T09:35:04.720Z,44.86
2023-05-01T09:36:04.913Z,45.49
2023-05-01T09:37:05.123Z,45.87
2023-05-01T09:38:05.344Z,44.64
2023-05-01T09:39:05.623Z,45.34
2023-05-01T09:40:05.746Z,44.34
2023-05-01T09:41:06.036Z,45.16
2023-05-01T09:42:06.128Z,45.97
2023-05-01T09:43:06.446Z,45.06
2023-05-01T09:44:06.563Z,44.68
2023-05-01T09:45:06.737Z,45.47
2023-05-01T09:46:07.163Z,44.46
2023-05-01T09:47:07.210Z,44.76
2023-05-01T09:48:07.413Z,45.26
2023-05-01T09:49:07.559Z,46.28
2023-05-01T09:50:07.802Z,45.65
2023-05-01T09:51:08.009Z,46.05
2023-05-01T09:52:08.115Z,46.23
2023-05-01T09:53:08.335Z,43.79
2023-05-01T09:54:08.544Z,43.89
2023-05-01T09:55:08.699Z,43.79
2023-05-01T09:56:08.870Z,43.66
2023-05-01T09:57:09.095Z,44.07
2023-05-01T09:58:09.284Z,43.54
2023-05-01T09:59:09.464Z,44.27
2023-05-01T10:00:09.660Z,43.87
2023-05-01T10:01:09.881Z,43.16
2023-05-01T10:02:10.102Z,43.57
2023-05-01T10:03:10.353Z,43.14
2023-05-01T10:04:10.561Z,42.35
2023-05-01T10:05:10.650Z,42.33
2023-05-01T10:06:10.914Z,42.72
2023-05-01T10:07:11.046Z,43.02
2023-05-01T10:08:11.255Z,40.70
2023-05-01T10:09:11.429Z,39.79
2023-05-01T10:10:11.644Z,40.62
2023-05-01T10:11:11.858Z,41.75
2023-05-01T10:12:12.075Z,42.68
2023-05-01T10:13:12.312Z,42.32
2023-05-01T10:14:12.521Z,41.49
2023-05-01T10:15:24.499Z,41.36
2023-05-01T10:16:12.897Z,40.76
2023-05-01T10:17:13.168Z,42.07
2023-05-01T10:18:13.391Z,43.14
2023-05-01T10:19:13.481Z,42.52
2023-05-01T10:20:13.695Z,42.90
2023-05-01T10:21:13.900Z,40.89
2023-05-01T10:22:14.080Z,41.87
2023-05-01T10:23:14.361Z,41.27
2023-05-01T10:24:14.503Z,40.24
2023-05-01T10:25:14.714Z,41.83
2023-05-01T10:26:14.918Z,39.43
2023-05-01T10:27:15.133Z,41.35
2023-05-01T10:28:15.365Z,40.55
2023-05-01T10:29:15.537Z,41.25
2023-05-01T10:30:15.816Z,39.54
2023-05-01T10:31:16.004Z,39.34
2023-05-01T10:32:16.141Z,38.35
2023-05-01T10:33:16.438Z,38.25
2023-05-01T10:34:16.586Z,40.36
2023-05-01T10:35:16.760Z,40.77
2023-05-01T10:36:16.980Z,41.37
2023-05-01T10:37:17.189Z,41.37
2023-05-01T10:38:17.417Z,40.16
2023-05-01T10:39:17.605Z,39.86
2023-05-01T10:40:17.784Z,40.36
2023-05-01T10:41:17.997Z,40.56
2023-05-01T10:42:18.178Z,42.25
2023-05-01T10:43:18.401Z,42.07
2023-05-01T10:44:18.609Z,42.32
2023-05-01T10:45:18.789Z,41.49
2023-05-01T10:46:19.133Z,42.30
2023-05-01T10:47:19.246Z,42.10
2023-05-01T10:48:19.430Z,43.68
2023-05-01T10:49:19.604Z,41.49
2023-05-01T10:50:19.822Z,41.33
2023-05-01T10:51:20.039Z,41.13
2023-05-01T10:52:20.218Z,42.11
2023-05-01T10:53:20.440Z,41.29
2023-05-01T10:54:20.644Z,40.89
2023-05-01T10:55:20.870Z,41.27
2023-05-01T10:56:21.087Z,41.25
2023-05-01T10:57:21.312Z,39.86
2023-05-01T10:58:21.490Z,40.08
2023-05-01T10:59:21.717Z,41.89
2023-05-01T11:00:21.846Z,40.78
2023-05-01T11:01:22.101Z,40.95
2023-05-01T11:02:22.382Z,41.05
2023-05-01T11:03:22.503Z,41.63
2023-05-01T11:04:22.679Z,40.91
2023-05-01T11:05:35.797Z,40.61
2023-05-01T11:06:23.142Z,40.33
2023-05-01T11:07:23.294Z,41.53
2023-05-01T11:08:23.481Z,41.25
2023-05-01T11:09:23.648Z,39.74
2023-05-01T11:10:23.841Z,39.64
2023-05-01T11:11:24.031Z,40.04
2023-05-01T11:12:24.214Z,40.33
2023-05-01T11:13:24.449Z,41.25
2023-05-01T11:14:24.606Z,38.35
2023-05-01T11:15:24.823Z,39.17
2023-05-01T11:16:25.063Z,38.30
2023-05-01T11:17:25.276Z,39.33
2023-05-01T11:18:25.451Z,40.99
2023-05-01T11:19:26.841Z,40.48
2023-05-01T11:20:25.844Z,40.89
2023-05-01T11:21:26.043Z,41.39
2023-05-01T11:22:26.214Z,41.27
2023-05-01T11:23:26.470Z,40.44
2023-05-01T11:24:26.620Z,39.76
2023-05-01T11:25:26.838Z,40.55
2023-05-01T11:26:27.049Z,41.15
2023-05-01T11:27:27.255Z,39.90
2023-05-01T11:28:27.502Z,39.88
2023-05-01T11:29:27.683Z,38.68
2023-05-01T11:30:27.910Z,38.88
2023-05-01T11:31:28.157Z,39.58
2023-05-01T11:32:28.353Z,41.47
2023-05-01T11:33:28.531Z,40.55
2023-05-01T11:34:28.713Z,40.43
2023-05-01T11:35:28.924Z,36.05
2023-05-01T11:36:29.142Z,37.94
2023-05-01T11:37:29.358Z,36.25
2023-05-01T11:38:29.565Z,37.85
2023-05-01T11:39:29.735Z,37.87
2023-05-01T11:40:29.953Z,40.19
2023-05-01T11:41:30.131Z,40.06
2023-05-01T11:42:30.365Z,39.40
2023-05-01T11:43:30.596Z,40.24
2023-05-01T11:44:30.779Z,39.58
2023-05-01T11:45:31.064Z,41.35
2023-05-01T11:46:31.365Z,37.30
2023-05-01T11:47:31.408Z,39.22
2023-05-01T11:48:31.635Z,37.79
2023-05-01T11:49:31.827Z,35.90
2023-05-01T11:50:32.024Z,36.67
2023-05-01T11:51:32.233Z,37.17
2023-05-01T11:52:32.432Z,38.40
2023-05-01T11:53:32.664Z,38.90
2023-05-01T11:54:32.855Z,38.68
2023-05-01T11:55:33.029Z,39.54
2023-05-01T11:56:33.229Z,36.33
2023-05-01T11:57:33.414Z,36.87
2023-05-01T11:58:33.670Z,36.25
2023-05-01T11:59:33.815Z,37.87
2023-05-01T12:00:34.129Z,38.46
2023-05-01T12:01:34.247Z,37.84
2023-05-01T12:02:34.509Z,40.53
2023-05-01T12:03:34.738Z,40.11
2023-05-01T12:04:35.003Z,38.51
2023-05-01T12:05:35.050Z,36.78
2023-05-01T12:06:35.267Z,38.31
2023-05-01T12:07:35.463Z,37.32
2023-05-01T12:08:35.715Z,38.72
2023-05-01T12:09:35.901Z,37.44
2023-05-01T12:10:36.138Z,38.32
2023-05-01T12:11:36.317Z,37.49
2023-05-01T12:12:36.535Z,38.07
2023-05-01T12:13:36.769Z,38.06
2023-05-01T12:14:36.983Z,39.26
2023-05-01T12:15:37.159Z,37.27
2023-05-01T12:16:37.449Z,38.29
2023-05-01T12:17:37.704Z,38.07
2023-05-01T12:18:37.775Z,38.26
2023-05-01T12:19:37.952Z,39.06
2023-05-01T12:20:38.174Z,38.20
2023-05-01T12:21:38.355Z,39.60
2023-05-01T12:22:38.587Z,41.45
2023-05-01T12:23:38.811Z,41.45
2023-05-01T12:24:38.959Z,42.82
2023-05-01T12:25:39.161Z,40.84
2023-05-01T12:26:39.369Z,42.25
2023-05-01T12:27:39.567Z,41.49
2023-05-01T12:28:39.849Z,39.92
2023-05-01T12:29:39.999Z,40.53
2023-05-01T12:30:40.215Z,42.69
2023-05-01T12:31:40.445Z,39.58
2023-05-01T12:32:40.650Z,39.38
2023-05-01T12:33:40.809Z,39.50
2023-05-01T12:34:40.991Z,40.41
2023-05-01T12:35:41.193Z,40.19
2023-05-01T12:36:41.412Z,40.39
2023-05-01T12:37:41.610Z,40.19
2023-05-01T12:38:41.850Z,41.21
2023-05-01T12:39:42.037Z,41.75
2023-05-01T12:40:42.283Z,42.76
2023-05-01T12:41:42.483Z,42.58
2023-05-01T12:42:42.807Z,42.98
2023-05-01T12:43:44.355Z,44.04
2023-05-01T12:44:43.048Z,42.40
2023-05-01T12:45:43.279Z,42.38
2023-05-01T12:46:43.649Z,42.32
2023-05-01T12:47:43.676Z,42.01
2023-05-01T12:48:43.913Z,41.99
2023-05-01T12:49:44.098Z,41.51
2023-05-01T12:50:45.945Z,43.60
2023-05-01T12:51:44.541Z,43.00
2023-05-01T12:52:44.687Z,44.36
2023-05-01T12:53:44.886Z,43.14
2023-05-01T12:54:45.052Z,40.51
2023-05-01T12:55:45.254Z,40.65